Baker, California
Current Conditions -  °F | °C
As of 5:55 AM on Friday 24 Oct 2014 (Local Time) from KBYS Reporting Station
Clear Clear  
Wind Chill: 67°   Ceiling: Unl
Heat Index: 67°   Visibility: 10mi
Dew Point: 37°   Wind: 5mph
Humidity: 33%   Direction: 20°NNE
Pressure: 30.04"   Gusts: NA
Location:  35.26°N, 116.07°W
Report Text: KBYS 241255Z AUTO 02004KT 10SM CLR 19/03 A3004 RMK AO2 SLP139 T01920025 $
Loading
Personal Weather Stations






























Interactive Weather Map
Tropical Storm Tracking
New forecast layout! Learn more

10-Day Weather Forecast

Advertisements
Track Severe Weather on mobile